Time;durP1;ratioP1;P1;durP2;ratioP2;P2;SDS_P1;SDS_P2;PMS_P1;PMS_P2;Temp;Humidity;BMP_temperature;BMP_pressure;BME280_temperature;BME280_humidity;BME280_pressure;Samples;Min_cycle;Max_cycle;Signal;HPM_P1;HPM_P2
2022/11/21 00:01:32;;;;;;;28.00;13.93;;;;;;;6.55;100.00;99821.97;4989539;28;20066;-77
2022/11/21 00:03:57;;;;;;;35.58;11.60;;;;;;;6.39;100.00;99807.09;4989507;28;20129;-75
2022/11/21 00:06:23;;;;;;;48.22;13.52;;;;;;;6.66;100.00;99809.00;5002087;28;20437;-77
2022/11/21 00:08:49;;;;;;;18.52;12.45;;;;;;;6.59;100.00;99812.44;5020703;28;20823;-76
2022/11/21 00:11:14;;;;;;;15.60;11.00;;;;;;;6.49;100.00;99783.72;4998233;28;20046;-75
2022/11/21 00:13:41;;;;;;;17.55;11.02;;;;;;;5.81;100.00;99635.66;4980758;28;20104;-76
2022/11/21 00:16:09;;;;;;;17.63;12.13;;;;;;;6.50;100.00;99755.91;5019860;28;20033;-76
2022/11/21 00:18:35;;;;;;;23.50;11.85;;;;;;;-146.26;100.00;59860.63;5018763;28;20050;-79
2022/11/21 00:21:05;;;;;;;15.82;11.25;;;;;;;-146.26;100.00;59860.63;5004179;28;20053;-75
2022/11/21 00:23:31;;;;;;;39.72;13.90;;;;;;;5.87;100.00;99640.88;4997234;28;20046;-74
2022/11/21 00:25:56;;;;;;;19.35;9.93;;;;;;;-146.26;100.00;59860.63;4989299;28;20109;-78
2022/11/21 00:28:22;;;;;;;18.30;10.05;;;;;;;-146.26;100.00;59860.63;5002449;28;20033;-76
2022/11/21 00:30:47;;;;;;;16.95;9.48;;;;;;;-146.26;100.00;59860.63;4986459;28;20026;-75
2022/11/21 00:33:12;;;;;;;35.58;11.80;;;;;;;-146.26;100.00;59860.63;5001163;28;20077;-76
2022/11/21 00:35:38;;;;;;;64.85;12.77;;;;;;;-146.26;100.00;59860.63;5004408;28;20049;-76
2022/11/21 00:38:05;;;;;;;25.98;10.40;;;;;;;7.23;100.00;99776.22;4988843;28;20513;-76
2022/11/21 00:40:30;;;;;;;33.20;10.93;;;;;;;-146.26;100.00;59860.63;4988137;28;20569;-77
2022/11/21 00:42:56;;;;;;;11.73;7.57;;;;;;;6.85;100.00;99719.59;4989876;28;20124;-78
2022/11/21 00:45:21;;;;;;;14.48;8.98;;;;;;;-146.26;100.00;59860.63;4971207;28;20098;-76
2022/11/21 00:47:47;;;;;;;15.20;7.40;;;;;;;6.43;100.00;99700.28;5001076;28;20077;-78
2022/11/21 00:50:12;;;;;;;16.20;7.05;;;;;;;5.68;100.00;99580.88;5017709;28;20386;-76
2022/11/21 00:52:38;;;;;;;11.82;8.10;;;;;;;-146.26;100.00;59860.63;5008045;28;20103;-75
2022/11/21 00:55:03;;;;;;;10.27;7.07;;;;;;;-146.26;100.00;59860.63;5008653;28;20715;-78
2022/11/21 00:57:29;;;;;;;9.95;5.97;;;;;;;-146.26;100.00;59860.63;5007711;28;20053;-77
2022/11/21 00:59:54;;;;;;;28.50;8.00;;;;;;;5.68;100.00;99580.88;5007689;28;20494;-76
2022/11/21 01:02:20;;;;;;;10.45;7.30;;;;;;;-146.26;100.00;59860.63;4993448;28;20479;-78
2022/11/21 01:04:45;;;;;;;11.07;6.38;;;;;;;-146.26;100.00;59860.63;4986529;28;20722;-77
2022/11/21 01:07:13;;;;;;;10.10;6.47;;;;;;;-146.26;100.00;59860.63;5005959;28;20029;-75
2022/11/21 01:09:38;;;;;;;10.65;6.35;;;;;;;5.91;100.00;99619.22;5007774;28;20045;-77
2022/11/21 01:12:04;;;;;;;11.05;5.05;;;;;;;5.49;100.00;99503.59;5002642;28;20047;-78
2022/11/21 01:14:29;;;;;;;10.00;5.43;;;;;;;-146.26;100.00;59860.63;4997001;28;20082;-76
2022/11/21 01:16:55;;;;;;;7.82;5.15;;;;;;;-146.26;100.00;59860.63;5007152;28;20046;-76
2022/11/21 01:19:20;;;;;;;9.27;5.63;;;;;;;-146.26;100.00;59860.63;5007742;28;20025;-78
2022/11/21 01:21:46;;;;;;;7.50;4.63;;;;;;;-146.26;100.00;59860.63;5004641;28;20556;-75
2022/11/21 01:24:11;;;;;;;8.57;4.97;;;;;;;6.15;100.00;99673.19;5007966;28;20054;-76
2022/11/21 01:26:38;;;;;;;19.05;6.55;;;;;;;5.51;100.00;99639.75;5004642;28;20132;-76
2022/11/21 01:29:06;;;;;;;8.10;4.07;;;;;;;-146.26;100.00;59860.63;5007196;28;20046;-75
2022/11/21 01:31:31;;;;;;;8.57;4.72;;;;;;;-146.26;100.00;59860.63;5007186;28;20076;-75
2022/11/21 01:33:59;;;;;;;14.07;5.75;;;;;;;-146.26;100.00;59860.63;4998907;28;20773;-76
2022/11/21 01:36:27;;;;;;;9.00;4.30;;;;;;;-146.26;100.00;59860.63;5005283;28;20072;-76
2022/11/21 01:38:55;;;;;;;7.93;3.28;;;;;;;-146.26;100.00;59860.63;5005101;28;20066;-76
2022/11/21 01:41:35;;;;;;;3.60;1.83;;;;;;;4.95;100.00;99581.19;5007126;28;20049;-76
2022/11/21 01:44:21;;;;;;;3.80;1.90;;;;;;;4.74;100.00;99545.47;5000478;28;20512;-76
2022/11/21 01:46:48;;;;;;;8.57;2.97;;;;;;;5.14;100.00;99537.16;5006368;28;20128;-76
2022/11/21 01:49:23;;;;;;;39.85;4.80;;;;;;;5.12;100.00;99466.94;4987835;28;20061;-77
2022/11/21 01:51:54;;;;;;;7.95;2.65;;;;;;;5.26;100.00;99461.81;4996734;28;20050;-76
2022/11/21 01:54:48;;;;;;;4.07;2.20;;;;;;;6.13;100.00;99584.66;5002583;28;20077;-76
2022/11/21 01:57:24;;;;;;;3.40;1.75;;;;;;;6.43;100.00;99603.00;4986986;28;20077;-76
2022/11/21 01:59:51;;;;;;;4.82;1.83;;;;;;;6.51;100.00;99589.13;4986992;28;20097;-78
2022/11/21 02:02:22;;;;;;;5.32;1.73;;;;;;;6.58;100.00;99574.38;4987531;28;20124;-78
2022/11/21 02:04:48;;;;;;;3.35;1.52;;;;;;;6.09;100.00;99463.09;4991737;28;20762;-75
2022/11/21 02:07:16;;;;;;;8.50;1.23;;;;;;;6.41;100.00;99475.31;5009628;28;20030;-76
2022/11/21 02:09:45;;;;;;;2.13;1.35;;;;;;;6.05;100.00;99450.94;5029160;28;20103;-75
2022/11/21 02:12:17;;;;;;;3.90;1.25;;;;;;;5.61;100.00;99425.56;5030538;28;20041;-77
2022/11/21 02:14:43;;;;;;;5.40;1.30;;;;;;;5.98;100.00;99498.66;5018561;28;20038;-77
2022/11/21 02:17:09;;;;;;;2.97;1.02;;;;;;;6.23;100.00;99524.78;5008796;28;20057;-78
2022/11/21 02:19:45;;;;;;;3.17;1.63;;;;;;;6.36;100.00;99520.47;5010793;28;20026;-76
2022/11/21 02:22:41;;;;;;;4.78;1.25;;;;;;;6.40;100.00;99558.69;5002119;28;20127;-76
2022/11/21 02:25:10;;;;;;;3.05;1.52;;;;;;;5.69;100.00;99423.03;5001560;28;20054;-76
2022/11/21 02:27:36;;;;;;;3.30;1.40;;;;;;;6.46;100.00;99530.94;4990490;28;20077;-76
2022/11/21 02:30:04;;;;;;;5.72;2.17;;;;;;;7.09;100.00;99569.22;4990951;28;20057;-75
2022/11/21 02:32:36;;;;;;;1.85;1.02;;;;;;;6.65;100.00;99505.75;4991229;28;20146;-74
2022/11/21 02:35:02;;;;;;;2.00;0.98;;;;;;;6.97;100.00;99537.06;5008379;28;20056;-75
2022/11/21 02:37:28;;;;;;;1.27;0.52;;;;;;;6.96;100.00;99518.81;4990689;28;20038;-76
2022/11/21 02:39:55;;;;;;;1.48;0.70;;;;;;;6.83;100.00;99498.81;4991346;28;20038;-76
2022/11/21 02:42:48;;;;;;;1.80;0.82;;;;;;;7.07;100.00;99495.31;4991006;28;20133;-76
2022/11/21 02:45:25;;;;;;;1.35;0.50;;;;;;;6.93;100.00;99477.97;4991530;28;20054;-78
2022/11/21 02:47:53;;;;;;;1.75;1.15;;;;;;;6.92;100.00;99450.13;5007809;28;20129;-76
2022/11/21 02:50:24;;;;;;;1.42;0.60;;;;;;;6.62;100.00;99404.09;5029728;28;20919;-76
2022/11/21 02:52:50;;;;;;;5.18;1.17;;;;;;;7.02;100.00;99495.31;5011206;28;20046;-77
2022/11/21 02:55:15;;;;;;;1.75;0.90;;;;;;;6.20;100.00;99356.31;4992386;28;20148;-77
2022/11/21 02:57:41;;;;;;;2.13;0.70;;;;;;;7.00;100.00;99488.38;4990231;28;20089;-76
2022/11/21 03:00:09;;;;;;;2.33;0.60;;;;;;;6.87;100.00;99464.06;4990252;28;20054;-76
2022/11/21 03:02:35;;;;;;;1.25;0.52;;;;;;;6.82;100.00;99411.91;4989235;28;20056;-75
2022/11/21 03:05:01;;;;;;;1.58;0.75;;;;;;;7.24;100.00;99461.41;4991086;28;20043;-77
2022/11/21 03:07:26;;;;;;;1.67;0.82;;;;;;;6.48;100.00;99332.88;5011927;28;20037;-77
2022/11/21 03:09:52;;;;;;;1.67;0.90;;;;;;;6.94;100.00;99409.28;5027642;28;20496;-77
2022/11/21 03:12:17;;;;;;;1.55;0.93;;;;;;;6.11;100.00;99273.84;5029884;28;20400;-76
2022/11/21 03:14:43;;;;;;;2.72;0.60;;;;;;;7.05;100.00;99439.72;5002645;28;20367;-77
2022/11/21 03:17:08;;;;;;;0.65;0.30;;;;;;;6.84;100.00;99402.34;5006314;28;20409;-75
2022/11/21 03:19:34;;;;;;;2.40;0.77;;;;;;;6.86;100.00;99403.22;5028932;28;20029;-76
2022/11/21 03:21:59;;;;;;;1.02;0.63;;;;;;;6.06;100.00;99264.28;5023331;28;20038;-77
2022/11/21 03:24:25;;;;;;;1.55;0.57;;;;;;;6.02;100.00;99259.97;5004206;28;20061;-76
2022/11/21 03:26:50;;;;;;;4.25;0.90;;;;;;;6.20;100.00;99353.72;4993890;28;20046;-78
2022/11/21 03:29:16;;;;;;;0.82;0.40;;;;;;;4.73;100.00;99140.09;4990555;28;20054;-77
2022/11/21 03:31:41;;;;;;;1.45;0.85;;;;;;;5.59;100.00;99369.19;4999473;28;20049;-75
2022/11/21 03:34:07;;;;;;;1.35;1.05;;;;;;;4.80;100.00;99258.78;5007917;28;20021;-75
2022/11/21 03:36:33;;;;;;;1.98;0.60;;;;;;;4.60;100.00;99241.38;5009168;28;20058;-76
2022/11/21 03:38:58;;;;;;;3.67;0.85;;;;;;;4.91;100.00;99264.03;4991677;28;20034;-76
2022/11/21 03:41:28;;;;;;;3.58;1.25;;;;;;;4.89;100.00;99243.25;5009247;28;20081;-75
2022/11/21 03:43:54;;;;;;;4.38;1.02;;;;;;;4.15;100.00;99149.41;5008329;28;20062;-75
2022/11/21 03:46:20;;;;;;;2.13;1.23;;;;;;;4.56;100.00;99205.84;5009246;28;20033;-75
2022/11/21 03:48:45;;;;;;;5.38;1.33;;;;;;;4.94;100.00;99272.75;5025748;28;20033;-78
2022/11/21 03:51:11;;;;;;;2.90;1.63;;;;;;;4.75;100.00;99255.31;5023765;28;20061;-76
2022/11/21 03:53:36;;;;;;;2.97;1.77;;;;;;;5.01;100.00;99320.41;5008231;28;20046;-76
2022/11/21 03:56:02;;;;;;;3.15;1.23;;;;;;;4.75;100.00;99278.69;5008932;28;20525;-75
2022/11/21 03:58:27;;;;;;;3.92;1.75;;;;;;;4.46;100.00;99200.63;5009005;28;20835;-76
2022/11/21 04:00:53;;;;;;;3.53;2.03;;;;;;;5.15;100.00;99271.97;5009458;28;20065;-76
2022/11/21 04:03:18;;;;;;;3.03;1.48;;;;;;;4.43;100.00;99184.16;5007843;28;20061;-76
2022/11/21 04:05:44;;;;;;;3.47;1.90;;;;;;;4.52;100.00;99146.09;5007860;28;20053;-76
2022/11/21 04:08:09;;;;;;;5.35;2.60;;;;;;;4.58;100.00;99187.69;5023629;28;20041;-76
2022/11/21 04:10:34;;;;;;;8.05;3.22;;;;;;;4.47;100.00;99164.25;5010591;28;20041;-75
2022/11/21 04:13:00;;;;;;;4.18;2.38;;;;;;;4.47;100.00;99153.88;4996530;28;20034;-76
2022/11/21 04:15:25;;;;;;;8.30;3.65;;;;;;;4.91;100.00;99219.88;4988110;28;20047;-77
2022/11/21 04:17:51;;;;;;;7.78;2.65;;;;;;;5.07;100.00;99325.63;5016021;28;20050;-77
2022/11/21 04:20:17;;;;;;;7.50;2.55;;;;;;;5.52;100.00;99579.03;5013242;28;20418;-77
2022/11/21 04:22:42;;;;;;;4.53;1.85;;;;;;;4.48;100.00;99485.47;5004301;28;20057;-75
2022/11/21 04:25:08;;;;;;;4.97;3.13;;;;;;;5.24;100.00;99581.47;5008221;28;20061;-77
2022/11/21 04:27:34;;;;;;;3.97;1.67;;;;;;;5.39;100.00;99595.44;5001675;28;20054;-77
2022/11/21 04:29:59;;;;;;;3.97;2.38;;;;;;;5.48;100.00;99588.56;4989153;28;20485;-78
2022/11/21 04:32:24;;;;;;;5.03;2.70;;;;;;;4.19;100.00;99461.81;5001006;28;20045;-78
2022/11/21 04:34:50;;;;;;;4.60;2.28;;;;;;;4.62;100.00;99472.63;4989875;28;20045;-75
2022/11/21 04:37:15;;;;;;;2.97;1.85;;;;;;;4.11;100.00;99388.19;4990734;28;20223;-78
2022/11/21 04:39:41;;;;;;;6.15;2.28;;;;;;;5.23;100.00;99534.63;5007931;28;20042;-77
2022/11/21 04:42:06;;;;;;;5.13;1.98;;;;;;;4.89;100.00;99448.56;4997909;28;20057;-79
2022/11/21 04:44:32;;;;;;;3.40;1.70;;;;;;;4.14;100.00;99349.28;4988866;28;20491;-78
2022/11/21 04:46:58;;;;;;;4.40;2.80;;;;;;;4.64;100.00;99491.69;4991431;28;20414;-78
2022/11/21 04:49:24;;;;;;;3.72;1.48;;;;;;;4.53;100.00;99491.59;5027609;28;20030;-78
2022/11/21 04:51:50;;;;;;;4.05;2.00;;;;;;;3.64;100.00;99332.38;5016349;28;20041;-77
2022/11/21 04:54:15;;;;;;;2.65;1.40;;;;;;;4.52;100.00;99466.47;5007534;28;20041;-76
2022/11/21 04:56:41;;;;;;;4.28;2.42;;;;;;;4.42;100.00;99425.69;5007546;28;20064;-76
2022/11/21 04:59:06;;;;;;;4.35;2.38;;;;;;;4.44;100.00;99427.44;5007431;28;20835;-76
2022/11/21 05:01:32;;;;;;;3.95;1.67;;;;;;;4.37;100.00;99365.91;5006842;28;20401;-77
2022/11/21 05:03:57;;;;;;;3.55;1.55;;;;;;;4.84;100.00;99422.53;5006762;28;20469;-76
2022/11/21 05:06:22;;;;;;;4.72;2.10;;;;;;;4.64;100.00;99412.03;5008771;28;20068;-77
2022/11/21 05:08:48;;;;;;;5.20;1.70;;;;;;;4.66;100.00;99383.47;5016927;28;20052;-77
2022/11/21 05:13:57;;;;;;;5.30;2.38;;;;;;;4.75;100.00;99310.78;5004481;28;20791;-77
2022/11/21 05:16:23;;;;;;;4.38;1.83;;;;;;;4.46;100.00;99270.75;5006991;28;20041;-77
2022/11/21 05:18:49;;;;;;;5.80;2.10;;;;;;;4.39;100.00;99217.91;5022034;28;20040;-76
2022/11/21 05:21:15;;;;;;;5.65;1.80;;;;;;;4.90;100.00;99320.38;5007626;28;20042;-76
2022/11/21 05:23:41;;;;;;;3.65;1.73;;;;;;;4.91;100.00;99308.22;5003040;28;20044;-75
2022/11/21 05:26:07;;;;;;;4.93;2.08;;;;;;;4.67;100.00;99270.00;4987653;28;20057;-76
2022/11/21 05:28:32;;;;;;;5.88;1.88;;;;;;;4.35;100.00;99209.22;4978311;28;20042;-79
2022/11/21 05:30:58;;;;;;;3.95;1.80;;;;;;;5.21;100.00;99333.50;4994418;28;20037;-77
2022/11/21 05:33:23;;;;;;;4.80;2.22;;;;;;;5.33;100.00;99336.16;5007199;28;20049;-77
2022/11/21 05:35:48;;;;;;;5.05;1.88;;;;;;;5.27;100.00;99331.81;5006800;28;20042;-76
2022/11/21 05:38:14;;;;;;;4.22;2.60;;;;;;;4.24;100.00;99138.22;5006193;28;20049;-76
2022/11/21 05:40:39;;;;;;;3.08;1.65;;;;;;;5.44;100.00;99349.19;5005578;28;20045;-77
2022/11/21 05:45:50;;;;;;;4.15;2.20;;;;;;;4.70;100.00;99203.31;5006517;28;20411;-77
2022/11/21 05:48:16;;;;;;;3.83;1.92;;;;;;;5.71;100.00;99357.09;5018273;28;20141;-76
2022/11/21 05:50:47;;;;;;;6.97;2.70;;;;;;;5.01;100.00;99232.00;5012548;28;20494;-75
2022/11/21 05:53:12;;;;;;;5.63;2.30;;;;;;;5.11;100.00;99246.81;5005508;28;20100;-77
2022/11/21 05:55:38;;;;;;;7.45;2.38;;;;;;;5.84;100.00;99359.72;5005865;28;20037;-75
2022/11/21 05:58:04;;;;;;;5.97;2.28;;;;;;;4.87;100.00;99211.19;5006804;28;20034;-77
2022/11/21 06:00:30;;;;;;;7.60;3.10;;;;;;;4.69;100.00;99226.72;5002421;28;20050;-77
2022/11/21 06:05:40;;;;;;;3.50;1.67;;;;;;;5.13;100.00;99265.88;5001599;28;20052;-76
2022/11/21 06:08:05;;;;;;;7.03;3.25;;;;;;;4.57;100.00;99202.41;5017138;28;20034;-76
2022/11/21 06:10:31;;;;;;;5.18;2.50;;;;;;;5.00;100.00;99353.34;5025844;28;20465;-75
2022/11/21 06:13:00;;;;;;;5.07;2.42;;;;;;;5.00;100.00;99342.06;5014815;28;20485;-76
2022/11/21 06:15:27;;;;;;;4.80;2.72;;;;;;;4.29;100.00;99222.19;5004298;28;20038;-76
2022/11/21 06:17:52;;;;;;;5.18;2.33;;;;;;;5.19;100.00;99356.03;5013978;28;20834;-75
2022/11/21 06:20:17;;;;;;;4.95;2.97;;;;;;;5.24;100.00;99328.31;5011431;28;20037;-76
2022/11/21 06:22:44;;;;;;;6.10;2.88;;;;;;;4.96;100.00;99255.41;5006891;28;20609;-76
2022/11/21 06:25:10;;;;;;;5.53;3.00;;;;;;;5.27;100.00;99344.81;5008596;28;20036;-78
2022/11/21 06:27:36;;;;;;;7.38;3.92;;;;;;;4.99;100.00;99299.63;5020400;28;20429;-81
2022/11/21 06:30:02;;;;;;;8.15;2.97;;;;;;;4.23;100.00;99173.66;5017862;28;20057;-79
2022/11/21 06:32:28;;;;;;;8.82;3.38;;;;;;;4.92;100.00;99265.81;4992373;28;20053;-77
2022/11/21 06:34:54;;;;;;;7.18;3.78;;;;;;;5.13;100.00;99304.88;5003965;28;20098;-80
2022/11/21 06:37:20;;;;;;;7.07;4.13;;;;;;;4.54;100.00;99230.09;4996546;28;20034;-80
2022/11/21 06:39:47;;;;;;;6.18;3.00;;;;;;;4.92;100.00;99354.19;4998194;28;20101;-78
2022/11/21 06:42:13;;;;;;;5.25;2.67;;;;;;;4.67;100.00;99314.19;4996154;28;20073;-77
2022/11/21 06:44:38;;;;;;;7.10;2.40;;;;;;;3.73;100.00;99209.69;4996839;28;20049;-77
2022/11/21 06:47:04;;;;;;;8.02;2.72;;;;;;;3.93;100.00;99234.06;5002195;28;20050;-78
2022/11/21 06:49:29;;;;;;;4.95;2.53;;;;;;;4.01;100.00;99210.75;4999118;28;20207;-75
2022/11/21 06:51:55;;;;;;;6.95;3.78;;;;;;;4.82;100.00;99366.22;4998126;28;20077;-75
2022/11/21 06:54:20;;;;;;;5.32;2.75;;;;;;;4.05;100.00;99240.16;5009290;28;20058;-75
2022/11/21 06:56:45;;;;;;;5.00;2.47;;;;;;;4.14;100.00;99248.03;5002708;28;20466;-74
2022/11/21 06:59:11;;;;;;;8.90;3.50;;;;;;;4.78;100.00;99380.94;5009255;28;20058;-77
2022/11/21 07:01:36;;;;;;;7.25;3.67;;;;;;;4.46;100.00;99367.72;4999821;28;20058;-77
2022/11/21 07:04:02;;;;;;;7.22;3.53;;;;;;;4.22;100.00;99275.78;5008894;28;20057;-76
2022/11/21 07:06:27;;;;;;;12.52;3.70;;;;;;;4.90;100.00;99382.75;5008085;28;20045;-77
2022/11/21 07:08:53;;;;;;;6.82;4.68;;;;;;;4.62;100.00;99347.91;5020126;28;20096;-76
2022/11/21 07:11:19;;;;;;;6.85;3.58;;;;;;;3.91;100.00;99232.28;4991494;28;20065;-76
2022/11/21 07:13:44;;;;;;;5.10;3.72;;;;;;;4.18;100.00;99299.13;4992343;28;20176;-74
2022/11/21 07:16:14;;;;;;;7.75;3.97;;;;;;;4.31;100.00;99272.41;5001424;28;20030;-75
2022/11/21 07:18:41;;;;;;;10.20;3.22;;;;;;;4.13;100.00;99262.75;4996230;28;20525;-75
2022/11/21 07:21:08;;;;;;;11.50;3.22;;;;;;;4.12;100.00;99245.44;5008973;28;20053;-75
2022/11/21 07:23:34;;;;;;;11.52;3.42;;;;;;;5.05;100.00;99350.75;4990850;28;20054;-75
2022/11/21 07:26:01;;;;;;;7.07;3.20;;;;;;;4.82;100.00;99276.16;5006348;28;20059;-75
2022/11/21 07:28:28;;;;;;;6.20;3.45;;;;;;;4.73;100.00;99348.88;5007257;28;20061;-75
2022/11/21 07:30:58;;;;;;;7.45;3.72;;;;;;;4.90;100.00;99354.16;4992148;28;20029;-76
2022/11/21 07:33:24;;;;;;;8.50;5.25;;;;;;;4.74;100.00;99368.78;5008531;28;20048;-75
2022/11/21 07:35:50;;;;;;;7.05;3.47;;;;;;;4.02;100.00;99228.91;5007775;28;20053;-74
2022/11/21 07:38:15;;;;;;;8.38;2.85;;;;;;;5.00;100.00;99389.72;5007895;28;20038;-75
2022/11/21 07:40:41;;;;;;;6.72;3.30;;;;;;;5.01;100.00;99372.41;5009181;28;20137;-74
2022/11/21 07:43:06;;;;;;;9.10;4.13;;;;;;;4.04;100.00;99243.63;5013365;28;20091;-74
2022/11/21 07:45:33;;;;;;;9.90;4.32;;;;;;;4.44;100.00;99263.81;5014060;28;20054;-74
2022/11/21 07:48:00;;;;;;;9.30;5.05;;;;;;;4.79;100.00;99272.66;5003924;28;20133;-70
2022/11/21 07:50:26;;;;;;;33.80;17.85;;;;;;;6.52;100.00;99204.31;5006589;28;20112;-71
2022/11/21 07:52:59;;;;;;;13.35;6.28;;;;;;;7.51;100.00;99346.47;5004256;28;20558;-71
2022/11/21 07:55:27;;;;;;;11.98;6.18;;;;;;;6.69;100.00;99358.91;5002824;28;20077;-72
2022/11/21 07:58:05;;;;;;;12.68;6.85;;;;;;;5.95;100.00;99399.69;5003813;28;20073;-71
2022/11/21 08:00:33;;;;;;;20.52;11.70;;;;;;;7.42;100.00;99395.22;5006394;28;20077;-70
2022/11/21 08:02:59;;;;;;;13.32;7.03;;;;;;;6.11;100.00;99398.88;5006864;28;20049;-71
2022/11/21 08:05:25;;;;;;;22.83;11.73;;;;;;;6.43;100.00;99400.63;5003413;28;20413;-71
2022/11/21 08:07:51;;;;;;;12.88;6.93;;;;;;;5.68;100.00;99267.72;4997890;28;20050;-70
2022/11/21 08:10:18;;;;;;;8.82;4.47;;;;;;;5.31;100.00;99389.03;5001690;28;20049;-75
2022/11/21 08:12:44;;;;;;;6.53;3.63;;;;;;;4.38;100.00;99281.97;5000691;28;20137;-75
2022/11/21 08:15:11;;;;;;;8.65;3.88;;;;;;;5.14;100.00;99308.34;4992346;28;20061;-74
2022/11/21 08:17:37;;;;;;;8.73;4.18;;;;;;;4.99;100.00;99285.75;5004161;28;20104;-75
2022/11/21 08:20:07;;;;;;;13.60;4.25;;;;;;;5.93;100.00;99396.19;5008140;28;20756;-75
2022/11/21 08:22:37;;;;;;;10.88;5.57;;;;;;;5.59;100.00;99429.91;5008101;28;20128;-73
2022/11/21 08:25:03;;;;;;;9.15;6.28;;;;;;;5.34;100.00;99322.28;5006732;28;20470;-76
2022/11/21 08:27:28;;;;;;;13.20;5.63;;;;;;;6.05;100.00;99404.06;4996507;28;20064;-75
2022/11/21 08:29:54;;;;;;;11.23;6.15;;;;;;;5.14;100.00;99267.59;5008387;28;20401;-75
2022/11/21 08:32:19;;;;;;;7.60;4.88;;;;;;;5.68;100.00;99375.28;5008423;28;20041;-75
2022/11/21 08:34:44;;;;;;;33.67;5.30;;;;;;;5.49;100.00;99376.97;5007108;28;20049;-74
2022/11/21 08:37:10;;;;;;;10.02;5.65;;;;;;;5.38;100.00;99442.81;5005916;28;20045;-76
2022/11/21 08:39:35;;;;;;;8.25;4.13;;;;;;;4.95;100.00;99357.66;5004096;28;20050;-74
2022/11/21 08:42:04;;;;;;;9.88;6.05;;;;;;;5.76;100.00;99452.50;4988665;28;20069;-74
2022/11/21 08:44:33;;;;;;;8.80;4.97;;;;;;;5.01;100.00;99352.50;4995873;28;20206;-73
2022/11/21 08:47:00;;;;;;;12.77;5.50;;;;;;;5.18;100.00;99320.50;5004594;28;20065;-74
2022/11/21 08:49:25;;;;;;;18.08;5.43;;;;;;;5.99;100.00;99444.81;5007704;28;20547;-73
2022/11/21 08:51:51;;;;;;;11.52;5.30;;;;;;;4.81;100.00;99260.53;5002585;28;20042;-74
2022/11/21 08:54:22;;;;;;;11.20;5.72;;;;;;;5.82;100.00;99445.59;5001811;28;20077;-74
2022/11/21 08:56:48;;;;;;;6.28;4.13;;;;;;;6.07;100.00;99440.53;4988996;28;20145;-74
2022/11/21 08:59:14;;;;;;;7.80;4.10;;;;;;;6.30;100.00;99472.69;4983069;28;20042;-73
2022/11/21 09:01:40;;;;;;;11.80;8.02;;;;;;;6.07;100.00;99484.78;4994935;28;20133;-73
2022/11/21 09:04:06;;;;;;;6.95;4.78;;;;;;;5.15;100.00;99368.16;4995202;28;20553;-73
2022/11/21 09:06:31;;;;;;;11.38;8.30;;;;;;;5.26;100.00;99371.66;5002555;28;20054;-73
2022/11/21 09:08:57;;;;;;;10.90;7.00;;;;;;;5.81;100.00;99462.09;4989405;28;20120;-73
2022/11/21 09:11:25;;;;;;;8.05;3.10;;;;;;;5.29;100.00;99415.00;4992621;28;20473;-73
2022/11/21 09:19:21;;;;;;;8.32;5.03;;;;;;;5.29;100.00;99355.19;4994903;28;20408;-72
2022/11/21 09:21:50;;;;;;;15.27;8.50;;;;;;;6.02;100.00;99494.34;5001766;28;20034;-73
2022/11/21 09:24:17;;;;;;;11.18;6.68;;;;;;;5.56;100.00;99435.09;5004101;28;20038;-73
2022/11/21 09:27:03;;;;;;;14.00;7.18;;;;;;;5.76;100.00;99442.09;4993413;28;20053;-72
2022/11/21 09:29:28;;;;;;;12.45;8.27;;;;;;;5.45;100.00;99447.19;5006944;28;20609;-73
2022/11/21 09:31:54;;;;;;;7.28;3.95;;;;;;;4.78;100.00;99383.53;4979305;28;20093;-73
2022/11/21 09:34:19;;;;;;;10.35;3.70;;;;;;;5.91;100.00;99483.84;5005287;28;20565;-72
2022/11/21 09:36:45;;;;;;;8.63;5.25;;;;;;;6.27;100.00;99503.94;4993382;28;20473;-73
2022/11/21 09:39:10;;;;;;;12.75;4.10;;;;;;;5.71;100.00;99382.22;5008927;28;20054;-73
2022/11/21 09:41:51;;;;;;;4.93;2.78;;;;;;;5.95;100.00;99500.34;4993408;28;20057;-73
2022/11/21 09:44:32;;;;;;;13.23;4.75;;;;;;;6.42;100.00;99490.09;4997431;28;20525;-73
2022/11/21 09:47:17;;;;;;;6.97;4.60;;;;;;;6.01;100.00;99393.63;4991931;28;20049;-72
2022/11/21 09:49:48;;;;;;;17.77;5.55;;;;;;;5.99;100.00;99489.94;4990149;28;20156;-73
2022/11/21 09:52:19;;;;;;;8.52;5.68;;;;;;;6.22;100.00;99497.84;5000679;28;20056;-73
2022/11/21 09:54:52;;;;;;;8.40;4.38;;;;;;;6.08;100.00;99429.22;4994359;28;20057;-72
2022/11/21 09:57:21;;;;;;;6.38;4.40;;;;;;;6.67;100.00;99506.63;5000338;28;20046;-73
2022/11/21 09:59:49;;;;;;;7.85;6.07;;;;;;;6.52;100.00;99484.00;5001219;28;20158;-72
2022/11/21 10:02:19;;;;;;;6.28;4.47;;;;;;;6.02;100.00;99369.34;5004243;28;20038;-70
2022/11/21 10:04:46;;;;;;;9.35;5.07;;;;;;;6.10;100.00;99391.03;5005244;28;20088;-71
2022/11/21 10:07:20;;;;;;;10.55;6.47;;;;;;;5.98;100.00;99376.25;5005755;28;20037;-70
2022/11/21 10:10:16;;;;;;;12.35;7.45;;;;;;;6.84;100.00;99514.47;5014355;28;20060;-75
2022/11/21 10:13:00;;;;;;;7.47;5.45;;;;;;;6.79;100.00;99504.88;5005781;28;20076;-75
2022/11/21 10:15:50;;;;;;;11.80;5.45;;;;;;;6.77;100.00;99510.13;5005494;28;20054;-75
2022/11/21 10:18:25;;;;;;;9.52;6.03;;;;;;;6.76;100.00;99501.41;4995234;28;20896;-73
2022/11/21 10:21:19;;;;;;;9.40;6.70;;;;;;;6.67;100.00;99497.94;5004806;28;20038;-75
2022/11/21 10:24:19;;;;;;;9.43;6.25;;;;;;;6.78;100.00;99495.34;5000520;28;20771;-73
2022/11/21 10:26:53;;;;;;;8.88;6.10;;;;;;;6.26;100.00;99515.22;5004292;28;20608;-75
2022/11/21 10:29:57;;;;;;;12.55;8.82;;;;;;;6.81;100.00;99493.59;4993534;28;20157;-75
2022/11/21 10:32:38;;;;;;;10.65;6.43;;;;;;;6.06;100.00;99365.84;4991387;28;20073;-74
2022/11/21 10:35:13;;;;;;;12.43;8.13;;;;;;;6.05;100.00;99351.09;5011557;28;20467;-74
2022/11/21 10:37:45;;;;;;;9.90;6.43;;;;;;;6.79;100.00;99492.75;5000103;28;20050;-73
2022/11/21 10:40:46;;;;;;;9.40;7.25;;;;;;;6.86;100.00;99532.69;5007416;28;20075;-76
2022/11/21 10:46:20;;;;;;;11.70;6.63;;;;;;;6.78;100.00;99526.63;5008071;28;20438;-75
2022/11/21 10:49:07;;;;;;;13.10;8.05;;;;;;;6.26;100.00;99429.25;4992331;28;20038;-74
2022/11/21 10:51:47;;;;;;;12.85;10.07;;;;;;;6.91;100.00;99538.81;5008825;28;20041;-77
2022/11/21 10:54:32;;;;;;;11.60;7.43;;;;;;;6.52;100.00;99450.13;5007271;28;20065;-74
2022/11/21 10:57:14;;;;;;;14.45;9.23;;;;;;;6.47;100.00;99418.00;5006175;28;20476;-75
2022/11/21 10:59:39;;;;;;;13.00;9.32;;;;;;;6.35;100.00;99404.97;4988903;28;20062;-73
2022/11/21 11:02:14;;;;;;;12.75;9.35;;;;;;;6.57;100.00;99429.28;4989328;28;20053;-75
2022/11/21 11:04:40;;;;;;;13.32;9.23;;;;;;;6.93;100.00;99516.19;5022653;28;20048;-74
2022/11/21 11:07:24;;;;;;;13.95;8.35;;;;;;;7.03;100.00;99530.13;4998596;28;20877;-74
2022/11/21 11:09:51;;;;;;;12.75;8.75;;;;;;;7.04;100.00;99514.44;4986925;28;20422;-75
2022/11/21 11:15:24;;;;;;;12.98;9.70;;;;;;;6.72;100.00;99481.44;5004196;28;20157;-75
2022/11/21 11:17:58;;;;;;;11.68;9.68;;;;;;;6.30;100.00;99393.69;4999510;28;20501;-74
2022/11/21 11:20:40;;;;;;;13.73;9.35;;;;;;;7.22;100.00;99524.03;5008916;28;20131;-76
2022/11/21 11:23:24;;;;;;;10.82;9.30;;;;;;;7.18;100.00;99514.44;5008868;28;20046;-75
2022/11/21 11:25:54;;;;;;;;;;;;;;;7.22;100.00;99507.50;5008515;28;20053;-73
2022/11/21 11:28:20;;;;;;;19.05;9.60;;;;;;;7.19;100.00;99509.25;5005907;28;19917;-73
2022/11/21 11:30:50;;;;;;;12.23;8.43;;;;;;;7.24;100.00;99500.53;5000805;28;20033;-74
2022/11/21 11:33:48;;;;;;;18.60;10.45;;;;;;;6.79;100.00;99413.63;4978713;28;20080;-73
2022/11/21 11:36:25;;;;;;;20.27;10.18;;;;;;;7.29;100.00;99507.47;5020130;28;20417;-76
2022/11/21 11:38:57;;;;;;;14.80;9.73;;;;;;;7.38;100.00;99497.03;5008184;28;20116;-76
2022/11/21 11:48:12;;;;;;;15.88;12.43;;;;;;;7.49;100.00;99502.25;5003380;28;20049;-76
2022/11/21 11:50:59;;;;;;;23.17;16.48;;;;;;;7.48;100.00;99481.34;4999546;28;20136;-73
2022/11/21 11:53:41;;;;;;;22.15;17.77;;;;;;;7.59;100.00;99530.06;4995321;28;20049;-73
2022/11/21 11:56:14;;;;;;;20.52;13.48;;;;;;;7.30;100.00;99537.03;4976312;28;20443;-75
2022/11/21 11:58:48;;;;;;;19.35;14.45;;;;;;;7.37;100.00;99524.00;4999993;28;20152;-75
2022/11/21 12:01:26;;;;;;;19.52;13.27;;;;;;;7.16;100.00;99471.84;4989901;28;20514;-73